Back to top

Evanston, WY weather

Evanston-Unita County Airport/Burns Field, Evanston, WY: 8/18/2022 03:53
Visibility10 statute milessun with a few clouds
View 7-Day Forecast
Area Summary
Sky/CloudsFew at 11000ft
Weather [last 24 hours]None
Pressure30.35 in.Hg (1028 hPa)
Dew Point37.9 °F (3.3 °C)
Relative Humidity 38 %
Temperature64 °F (17.8 °C)red thermometer
Reading TimeMinimum to Maximum Temperature
6-hr ending 8/17@23:5366 °F to 84 °F (18.9 °C to 28.9 °C)
6-hr ending 8/17@17:5378.1 °F to 84.9 °F (25.6 °C to 29.4 °C)
6-hr ending 8/17@11:5353.1 °F to 79 °F (11.7 °C to 26.1 °C)
6-hr ending 8/17@05:5355.9 °F to 69.1 °F (13.3 °C to 20.6 °C)
24-hr ending 8/18@00:5353.1 °F to 84.9 °F (11.7 °C to 29.4 °C)
Wind6.9 MPH (6 KT) green arrow pointing 90 degrees
Wind FromEast (090 Degrees)
Twilight Begins06:07Sunshine Yesterday
Sunrise06:37N/A
Sunset20:19
Twilight Ends20:48
METARKEVW 180953Z AUTO 09006KT 10SM FEW110 18/03 A3035 RMK AO2 SLP161 T01780033
Tags: